Terminal Aerodrome Forecast
Issued by NWS

Home | Current Version | Previous Version | Graphics & Text | Print | Product List | Glossary Off
Versions: 1 2 3 4 5 6 7 8 9 10 11 12 13 14 15 16 17 18 19 20 21 22 23 24

000
FTUS43 KDDC 041127
TAFGCK
TAF
KGCK 041127Z 0412/0512 03015G22KT 4SM -SN BR OVC015
      TEMPO 0412/0416 2SM -SN BR SCT008 BKN009
     FM041600 03012G20KT P6SM -SN OVC015
     FM042000 03008KT P6SM -SN SCT015 OVC050=

USA.gov is the U.S. government's official web portal to all federal, state and local government web resources and services.